Tropical Cyclones
[Index]
Main Index Home Page Stock Weather Photos Extreme Storms Discussion Storm News and Storm Chasing Reports Tropical Cyclones / Hurricanes / Typhoons Weather Data and Links Wild Fires / Bushfires Weather Observation Techniques Weather Picture Catalogue Tornado Pictures and Reports Stock Video Footage and DVDs for sale
Season 1993-1994 Tropical Cyclone THEODORE Track Map
Season 1993-1994 Summaries: [BoM-AU] [JTWC-AU] [JTWC-SIO] [JTWC-SPAC] [JTWC-SH]
<<- Previous TC | BoM 1993-1994 Season | Next TC ->>

click for intensity scale information  Lat/long Grid: Show Hide

 Date Labels: Show Hide

Bureau of Meteorology Tropical Cyclone Data

Name: THEODORE
Number: 767 / 199394_07

22 Feb 1994 06:00 UTC to 27 Feb 1994 00:00 UTC

    date/time    lat    long    hPa   cat  kts
1994-02-22 06    7.9   154.6    998         25          
1994-02-22 12    8.2   154.6    994    1    30          
1994-02-22 18    8.9   154.6    992    1    40          
1994-02-23 00    9.7   154.6    990    1    45          
1994-02-23 06   10.3   154.7    988    1    50          
1994-02-23 12   10.8   154.6    988    1    50          
1994-02-23 16   11.2   154.4    987    1    60          
1994-02-24 00   11.9   154.2    965    3    75          
1994-02-24 06   12.0   154.3    945    4    90          
1994-02-24 12   12.6   154.3    945    4    90          
1994-02-24 18   12.7   154.8    945    4    90          
1994-02-25 00   13.0   155.7    935    4    105          
1994-02-25 06   13.5   156.5    910    5    115          
1994-02-25 12   14.2   157.3    915    5    110          
1994-02-25 18   14.8   158.1    915    5    100          
1994-02-26 00   15.6   159.3    930    4    100          
1994-02-26 06   16.5   161.1    935    4    100          
1994-02-26 12   18.0   162.8    935    4    100          
1994-02-26 18   19.7   164.5    935    4    100          
1994-02-27 00   21.6   167.1    935    4    10          
Winds are 10-min average.

Tropical cyclone tracks developed by Michael Bath using data from the Bureau of Meteorology and Google Maps.


[Australian Severe Weather index] [Copyright Notice] [Email Contacts] [Search This Site] [Privacy Policy]
Document: tropical_cyclone_theodore.htm Updated: 4 April 2018